AirNav   Duncan Aviation - Near you to keep you flying
 
 1674 users online  

WN92 Sky Meadows Airpark
Spokane, Washington, USA

GOING TO SPOKANE?


FAA INFORMATION EFFECTIVE 04 NOVEMBER 2021

Location

FAA Identifier: WN92
Lat/Long: 47-36-30.6280N 117-10-50.7260W
47-36.510467N 117-10.845433W
47.6085078,-117.1807572
(estimated)
Elevation: 2350 ft. / 716 m (estimated)
Variation: 19E (1985)
From city: 8 miles SE of SPOKANE, WA
Time zone: UTC -7 (UTC -8 during Standard Time)
Zip code: 99016

Airport Operations

Airport use: Private use. Permission required prior to landing
Activation date: 01/1988
Control tower: no
ARTCC: SEATTLE CENTER
FSS: SEATTLE FLIGHT SERVICE STATION
Attendance: UNATNDD
Wind indicator: yes
Segmented circle: no
Lights: ACTVT MIRL RY 16/34 - 122.9.

Airport Communications

WX ASOS at SFF (7 nm NW): 120.55 (509-535-3290)
WX ASOS at GEG (14 nm W): PHONE 509-742-2544
WX AWOS-3PT at COE (18 nm NE): 135.075 (208-772-8215)

Nearby radio navigation aids

VOR radial/distance  VOR name  Freq  Var
COEr217/17.6COEUR D'ALENE VOR/DME108.8019E
GEGr061/18.2SPOKANE VORTAC115.5021E

 
NDB name  Hdg/Dist  Freq  Var  ID
DEER PARK139/23.736516EDPY -.. .--. -.--

Airport Services

Runway Information

Runway 16/34

Dimensions: 3100 x 100 ft. / 945 x 30 m
Surface: turf, in good condition
Runway edge lights: medium intensity
RUNWAY 16  RUNWAY 34
Traffic pattern: leftleft
Displaced threshold: no400 ft.

Airport Ownership and Management from official FAA records

Ownership: Privately-owned
Owner: SKY MEADOWS AIRPARK ASSOC
16616 E 44TH AVE
GREENACRES, WA 99016
Phone (509) 999-1505
OR CALL 509-926-1636 (EVENINGS).
Manager: RUSTY IMES
51209 S SKY MEADOWS LN
GREENACRES, WA 99016
Phone 509-370-6445
ALT MANAGER 509-891-6764.

Airport Operational Statistics

Aircraft based on the field: 7
Single engine airplanes: 7
    

Additional Remarks

FOR CD CTC SPOKANE APCH AT 509-742-2522

Instrument Procedures

There are no published instrument procedures at WN92.

Some nearby airports with instrument procedures:

KSFF - Felts Field Airport (7 nm NW)
KGEG - Spokane International Airport (14 nm W)
KCOE - Coeur d'Alene Airport - Pappy Boyington Field (18 nm NE)
KSKA - Fairchild Air Force Base (19 nm W)
KDEW - Deer Park Airport (24 nm NW)
 
Loc | Ops | Rwys | IFR | FBO | Links
Com | Nav | Svcs | Stats | Notes
Area around WN92 (Sky Meadows Airpark)
 
Road maps at: MapQuest Bing Google
 
Aerial photo
WARNING: Photo may not be current or correct
Aerial photo of WN92 (Sky Meadows Airpark)
Do you have a better or more recent aerial photo of Sky Meadows Airpark that you would like to share? If so, please send us your photo.

 
Sectional chart

 
Airport distance calculator
Flying to Sky Meadows Airpark? Find the distance to fly.

From to WN92

Sunrise and sunset
Times for 29-Nov-2021
 Local
(UTC-8)
 Zulu
(UTC)
Morning civil twilight06:4014:40
Sunrise07:1515:15
Sunset16:0024:00
Evening civil twilight16:3500:35

Current date and time
Zulu (UTC)  29-Nov-2021 23:11:26
Local (UTC-8)  29-Nov-2021 15:11:26
 
METAR
KSFF 
7nm NW 
292253Z AUTO 19009KT 10SM BKN043 13/07 A3021 RMK AO2 SLP230 T01280072
KGEG 
14nm W 
292253Z 21010KT 10SM FEW025 BKN035 11/07 A3021 RMK AO2 SLP235 T01060067
KCOE 
18nm NE 
292256Z AUTO 18003KT 10SM BKN025 OVC031 10/07 A3021 RMK AO2 SLP254 T01000067
KSKA 
19nm W 
292258Z 18008KT 10SM FEW024 SCT030 BKN040 11/10 A3020 RMK AO2A SLP236 T01050103 $
TAF
KSFF 
7nm NW 
291737Z 2918/3018 VRB04KT P6SM VCSH BKN015 FM292100 23006KT P6SM SCT025 BKN040 FM300200 21005KT P6SM BKN025 FM300900 18008KT P6SM OVC250 FM301600 20010KT P6SM OVC020
KGEG 
14nm W 
291737Z 2918/3018 19004KT P6SM VCSH BKN010 OVC120 FM292100 24009KT P6SM BKN030 FM300200 19008KT P6SM BKN020 FM300900 18008KT P6SM OVC250 FM301600 20010KT P6SM OVC020
KCOE 
18nm NE 
291737Z 2918/3018 00000KT P6SM OVC022 FM292000 23006KT P6SM VCSH OVC020 FM292200 22005KT P6SM BKN015 FM300000 19005KT P6SM BKN030 FM300900 18005KT P6SM OVC030 FM301600 20006KT P6SM OVC025
KSKA 
19nm W 
291900Z 2919/0101 20012KT 9999 SCT010 BKN080 620804 QNH3017INS BECMG 3000/3001 19009KT 9999 BKN008 OVC025 620405 QNH3023INS BECMG 3008/3009 20012KT 9999 FEW008 BKN025 OVC160 QNH3010INS BECMG 3015/3016 20012G20KT 9999 VCSH OVC012 620806 QNH3006INS TX10/2923Z TN06/3011Z
NOTAMs
Click for the latest NOTAMs
NOTAMs are issued by the DoD/FAA and will open in a separate window not controlled by AirNav.

 

 
 

Would you like to see your business listed on this page?

 If your business provides an interesting product or service to pilots, flight crews, aircraft, or users of the Sky Meadows Airpark, you should consider listing it here.  To start the listing process, click on the button below
 
Add a business
 

Other Pages about Sky Meadows Airpark

Update a link
 
Copyright © AirNav, LLC. All rights reserved. Privacy Policy  Contact